Terminal Aerodrome Forecast
Issued by NWS

Home | Current Version | Previous Version | Text Only | Print | Product List | Glossary On
Versions: 1 2 3 4 5 6 7 8 9 10 11 12 13 14 15
883
FTUS46 KPDT 300127 AAA
TAFALW
TAF AMD
KALW 300127Z 3001/3024 17010KT P6SM -SHRA BKN045
     FM300900 20008KT P6SM BKN050
     FM302000 30007KT P6SM SCT060=

USA.gov is the U.S. government's official web portal to all federal, state and local government web resources and services.